Grand Prairie, Texas
Current Conditions -  °F | °C
As of 1:50 PM on Friday 19 Dec 2014 (Local Time) from KGPM Reporting Station
Haze Haze  
Wind Chill: 43°   Ceiling: 800
Heat Index: 48°   Visibility: 5mi
Dew Point: 46°   Wind: 12mph
Humidity: 93%   Direction: 10°N
Pressure: 30.16"   Gusts: NA
Location:  32.75°N, 97.01°W
Report Text: KGPM 191950Z 01010KT 5SM BR OVC008 09/08 A3016
Loading
Personal Weather Stations






























Interactive Weather Map New forecast layout! Learn more

10-Day Weather Forecast

Advertisements
Track Severe Weather on mobile